sensor_id;sensor_type;location;lat;lon;timestamp;P1;durP1;ratioP1;P2;durP2;ratioP2
44276;SDS011;29973;43.742;1.236;2022-11-15T00:00:45;43.20;;;26.05;;
44276;SDS011;29973;43.742;1.236;2022-11-15T00:03:13;49.85;;;27.25;;
44276;SDS011;29973;43.742;1.236;2022-11-15T00:05:39;45.25;;;23.15;;
44276;SDS011;29973;43.742;1.236;2022-11-15T00:08:05;40.40;;;24.38;;
44276;SDS011;29973;43.742;1.236;2022-11-15T00:10:31;35.72;;;23.40;;
44276;SDS011;29973;43.742;1.236;2022-11-15T00:12:59;48.38;;;26.88;;
44276;SDS011;29973;43.742;1.236;2022-11-15T00:15:25;48.97;;;26.92;;
44276;SDS011;29973;43.742;1.236;2022-11-15T00:17:51;43.33;;;24.35;;
44276;SDS011;29973;43.742;1.236;2022-11-15T00:20:24;44.65;;;23.83;;
44276;SDS011;29973;43.742;1.236;2022-11-15T00:22:50;42.70;;;25.83;;
44276;SDS011;29973;43.742;1.236;2022-11-15T00:25:16;51.50;;;28.58;;
44276;SDS011;29973;43.742;1.236;2022-11-15T00:27:45;45.00;;;28.10;;
44276;SDS011;29973;43.742;1.236;2022-11-15T00:30:14;50.13;;;29.35;;
44276;SDS011;29973;43.742;1.236;2022-11-15T00:32:40;48.17;;;26.35;;
44276;SDS011;29973;43.742;1.236;2022-11-15T00:35:06;41.65;;;24.92;;
44276;SDS011;29973;43.742;1.236;2022-11-15T00:37:32;37.58;;;23.90;;
44276;SDS011;29973;43.742;1.236;2022-11-15T00:39:58;40.55;;;24.85;;
44276;SDS011;29973;43.742;1.236;2022-11-15T00:42:24;45.42;;;27.73;;
44276;SDS011;29973;43.742;1.236;2022-11-15T00:44:50;41.78;;;24.48;;
44276;SDS011;29973;43.742;1.236;2022-11-15T00:47:17;39.22;;;24.10;;
44276;SDS011;29973;43.742;1.236;2022-11-15T00:49:43;47.30;;;27.15;;
44276;SDS011;29973;43.742;1.236;2022-11-15T00:52:09;41.90;;;26.55;;
44276;SDS011;29973;43.742;1.236;2022-11-15T00:54:35;44.90;;;27.02;;
44276;SDS011;29973;43.742;1.236;2022-11-15T00:57:01;42.35;;;26.23;;
44276;SDS011;29973;43.742;1.236;2022-11-15T00:59:27;45.22;;;27.48;;
44276;SDS011;29973;43.742;1.236;2022-11-15T01:01:53;45.28;;;28.58;;
44276;SDS011;29973;43.742;1.236;2022-11-15T01:04:19;70.43;;;35.72;;
44276;SDS011;29973;43.742;1.236;2022-11-15T01:06:45;56.92;;;32.75;;
44276;SDS011;29973;43.742;1.236;2022-11-15T01:09:11;54.50;;;30.80;;
44276;SDS011;29973;43.742;1.236;2022-11-15T01:11:38;51.88;;;27.52;;
44276;SDS011;29973;43.742;1.236;2022-11-15T01:14:04;48.70;;;28.00;;
44276;SDS011;29973;43.742;1.236;2022-11-15T01:16:30;47.92;;;29.52;;
44276;SDS011;29973;43.742;1.236;2022-11-15T01:18:58;48.20;;;28.80;;
44276;SDS011;29973;43.742;1.236;2022-11-15T01:21:24;57.60;;;32.53;;
44276;SDS011;29973;43.742;1.236;2022-11-15T01:23:53;55.17;;;29.13;;
44276;SDS011;29973;43.742;1.236;2022-11-15T01:26:20;49.72;;;28.65;;
44276;SDS011;29973;43.742;1.236;2022-11-15T01:28:46;67.32;;;37.95;;
44276;SDS011;29973;43.742;1.236;2022-11-15T01:31:13;55.03;;;33.50;;
44276;SDS011;29973;43.742;1.236;2022-11-15T01:33:40;51.40;;;30.80;;
44276;SDS011;29973;43.742;1.236;2022-11-15T01:36:07;46.40;;;28.70;;
44276;SDS011;29973;43.742;1.236;2022-11-15T01:38:33;55.10;;;30.27;;
44276;SDS011;29973;43.742;1.236;2022-11-15T01:40:59;49.40;;;29.33;;
44276;SDS011;29973;43.742;1.236;2022-11-15T01:43:33;46.50;;;28.35;;
44276;SDS011;29973;43.742;1.236;2022-11-15T01:46:02;53.88;;;29.55;;
44276;SDS011;29973;43.742;1.236;2022-11-15T01:48:31;52.50;;;30.73;;
44276;SDS011;29973;43.742;1.236;2022-11-15T01:50:59;65.68;;;36.17;;
44276;SDS011;29973;43.742;1.236;2022-11-15T01:53:26;69.70;;;37.72;;
44276;SDS011;29973;43.742;1.236;2022-11-15T01:55:53;51.33;;;31.23;;
44276;SDS011;29973;43.742;1.236;2022-11-15T01:58:19;62.63;;;35.63;;
44276;SDS011;29973;43.742;1.236;2022-11-15T02:00:45;64.45;;;37.47;;
44276;SDS011;29973;43.742;1.236;2022-11-15T02:03:13;57.75;;;33.85;;
44276;SDS011;29973;43.742;1.236;2022-11-15T02:05:39;61.35;;;34.40;;
44276;SDS011;29973;43.742;1.236;2022-11-15T02:08:05;62.28;;;33.78;;
44276;SDS011;29973;43.742;1.236;2022-11-15T02:10:32;53.88;;;32.00;;
44276;SDS011;29973;43.742;1.236;2022-11-15T02:12:58;59.40;;;32.60;;
44276;SDS011;29973;43.742;1.236;2022-11-15T02:15:26;50.03;;;30.40;;
44276;SDS011;29973;43.742;1.236;2022-11-15T02:41:42;53.80;;;25.65;;
44276;SDS011;29973;43.742;1.236;2022-11-15T02:44:17;46.90;;;25.40;;
44276;SDS011;29973;43.742;1.236;2022-11-15T02:46:45;44.25;;;23.20;;
44276;SDS011;29973;43.742;1.236;2022-11-15T02:49:32;45.35;;;22.95;;
44276;SDS011;29973;43.742;1.236;2022-11-15T02:51:58;50.10;;;25.02;;
44276;SDS011;29973;43.742;1.236;2022-11-15T02:54:25;44.13;;;23.60;;
44276;SDS011;29973;43.742;1.236;2022-11-15T02:56:53;45.90;;;22.95;;
44276;SDS011;29973;43.742;1.236;2022-11-15T02:59:23;40.78;;;22.73;;
44276;SDS011;29973;43.742;1.236;2022-11-15T03:01:56;43.08;;;22.05;;
44276;SDS011;29973;43.742;1.236;2022-11-15T03:04:35;47.42;;;23.35;;
44276;SDS011;29973;43.742;1.236;2022-11-15T03:15:04;42.85;;;20.35;;
44276;SDS011;29973;43.742;1.236;2022-11-15T03:17:36;41.50;;;21.55;;
44276;SDS011;29973;43.742;1.236;2022-11-15T03:20:04;37.50;;;20.77;;
44276;SDS011;29973;43.742;1.236;2022-11-15T03:22:33;44.30;;;20.92;;
44276;SDS011;29973;43.742;1.236;2022-11-15T03:25:02;46.90;;;20.70;;
44276;SDS011;29973;43.742;1.236;2022-11-15T03:27:36;43.65;;;21.40;;
44276;SDS011;29973;43.742;1.236;2022-11-15T03:30:04;40.80;;;20.58;;
44276;SDS011;29973;43.742;1.236;2022-11-15T03:32:32;39.25;;;19.30;;
44276;SDS011;29973;43.742;1.236;2022-11-15T03:35:02;50.08;;;22.10;;
44276;SDS011;29973;43.742;1.236;2022-11-15T03:40:08;46.53;;;21.80;;
44276;SDS011;29973;43.742;1.236;2022-11-15T03:45:27;43.83;;;19.38;;
44276;SDS011;29973;43.742;1.236;2022-11-15T03:47:58;41.60;;;20.05;;
44276;SDS011;29973;43.742;1.236;2022-11-15T03:50:25;39.22;;;18.52;;
44276;SDS011;29973;43.742;1.236;2022-11-15T03:52:51;35.20;;;18.05;;
44276;SDS011;29973;43.742;1.236;2022-11-15T03:55:20;37.08;;;17.77;;
44276;SDS011;29973;43.742;1.236;2022-11-15T03:57:50;47.53;;;18.25;;
44276;SDS011;29973;43.742;1.236;2022-11-15T04:00:17;35.42;;;18.77;;
44276;SDS011;29973;43.742;1.236;2022-11-15T04:02:43;37.42;;;18.23;;
44276;SDS011;29973;43.742;1.236;2022-11-15T04:05:09;40.30;;;19.23;;
44276;SDS011;29973;43.742;1.236;2022-11-15T04:07:35;48.88;;;19.83;;
44276;SDS011;29973;43.742;1.236;2022-11-15T04:10:01;52.42;;;21.52;;
44276;SDS011;29973;43.742;1.236;2022-11-15T04:12:27;50.42;;;22.30;;
44276;SDS011;29973;43.742;1.236;2022-11-15T04:14:57;58.58;;;22.52;;
44276;SDS011;29973;43.742;1.236;2022-11-15T04:17:49;57.38;;;22.92;;
44276;SDS011;29973;43.742;1.236;2022-11-15T04:20:16;51.53;;;20.95;;
44276;SDS011;29973;43.742;1.236;2022-11-15T04:23:02;53.72;;;21.20;;
44276;SDS011;29973;43.742;1.236;2022-11-15T04:25:49;53.58;;;20.92;;
44276;SDS011;29973;43.742;1.236;2022-11-15T04:28:15;45.47;;;20.50;;
44276;SDS011;29973;43.742;1.236;2022-11-15T04:30:41;52.80;;;19.80;;
44276;SDS011;29973;43.742;1.236;2022-11-15T04:33:07;48.17;;;19.17;;
44276;SDS011;29973;43.742;1.236;2022-11-15T04:35:33;50.13;;;19.98;;
44276;SDS011;29973;43.742;1.236;2022-11-15T04:38:00;43.33;;;17.77;;
44276;SDS011;29973;43.742;1.236;2022-11-15T04:40:26;56.05;;;18.52;;
44276;SDS011;29973;43.742;1.236;2022-11-15T04:42:52;49.30;;;19.55;;
44276;SDS011;29973;43.742;1.236;2022-11-15T04:45:18;52.40;;;21.15;;
44276;SDS011;29973;43.742;1.236;2022-11-15T04:47:45;51.90;;;19.85;;
44276;SDS011;29973;43.742;1.236;2022-11-15T04:50:12;54.53;;;20.52;;
44276;SDS011;29973;43.742;1.236;2022-11-15T04:52:49;51.90;;;19.45;;
44276;SDS011;29973;43.742;1.236;2022-11-15T04:55:16;52.20;;;20.75;;
44276;SDS011;29973;43.742;1.236;2022-11-15T04:57:42;44.55;;;18.42;;
44276;SDS011;29973;43.742;1.236;2022-11-15T05:00:10;52.92;;;20.27;;
44276;SDS011;29973;43.742;1.236;2022-11-15T05:02:36;45.60;;;19.88;;
44276;SDS011;29973;43.742;1.236;2022-11-15T05:05:20;48.85;;;20.27;;
44276;SDS011;29973;43.742;1.236;2022-11-15T05:07:47;41.72;;;17.67;;
44276;SDS011;29973;43.742;1.236;2022-11-15T05:10:13;39.97;;;17.25;;
44276;SDS011;29973;43.742;1.236;2022-11-15T05:12:39;41.75;;;18.25;;
44276;SDS011;29973;43.742;1.236;2022-11-15T05:15:05;47.80;;;18.73;;
44276;SDS011;29973;43.742;1.236;2022-11-15T05:17:31;47.65;;;17.33;;
44276;SDS011;29973;43.742;1.236;2022-11-15T05:19:57;38.13;;;16.63;;
44276;SDS011;29973;43.742;1.236;2022-11-15T05:22:23;39.13;;;17.08;;
44276;SDS011;29973;43.742;1.236;2022-11-15T05:24:49;42.42;;;16.73;;
44276;SDS011;29973;43.742;1.236;2022-11-15T05:27:15;41.28;;;17.27;;
44276;SDS011;29973;43.742;1.236;2022-11-15T05:29:41;42.63;;;16.73;;
44276;SDS011;29973;43.742;1.236;2022-11-15T05:32:08;33.70;;;16.08;;
44276;SDS011;29973;43.742;1.236;2022-11-15T05:34:35;35.22;;;16.02;;
44276;SDS011;29973;43.742;1.236;2022-11-15T05:37:01;29.60;;;14.75;;
44276;SDS011;29973;43.742;1.236;2022-11-15T05:39:27;31.52;;;13.70;;
44276;SDS011;29973;43.742;1.236;2022-11-15T05:41:54;32.70;;;14.52;;
44276;SDS011;29973;43.742;1.236;2022-11-15T05:44:22;36.47;;;15.48;;
44276;SDS011;29973;43.742;1.236;2022-11-15T05:46:50;31.83;;;14.68;;
44276;SDS011;29973;43.742;1.236;2022-11-15T05:49:19;31.08;;;13.75;;
44276;SDS011;29973;43.742;1.236;2022-11-15T05:51:46;32.35;;;14.27;;
44276;SDS011;29973;43.742;1.236;2022-11-15T05:54:13;26.25;;;12.35;;
44276;SDS011;29973;43.742;1.236;2022-11-15T05:56:39;26.65;;;12.05;;
44276;SDS011;29973;43.742;1.236;2022-11-15T05:59:06;28.20;;;13.40;;
44276;SDS011;29973;43.742;1.236;2022-11-15T06:01:33;28.98;;;13.38;;
44276;SDS011;29973;43.742;1.236;2022-11-15T06:03:59;21.05;;;12.02;;
44276;SDS011;29973;43.742;1.236;2022-11-15T06:06:26;22.88;;;11.45;;
44276;SDS011;29973;43.742;1.236;2022-11-15T06:08:52;26.52;;;12.70;;
44276;SDS011;29973;43.742;1.236;2022-11-15T06:11:18;23.25;;;12.00;;
44276;SDS011;29973;43.742;1.236;2022-11-15T06:13:45;24.88;;;11.65;;
44276;SDS011;29973;43.742;1.236;2022-11-15T06:16:11;24.70;;;11.85;;
44276;SDS011;29973;43.742;1.236;2022-11-15T06:18:37;24.85;;;12.27;;
44276;SDS011;29973;43.742;1.236;2022-11-15T06:21:03;18.73;;;11.55;;
44276;SDS011;29973;43.742;1.236;2022-11-15T06:23:33;28.15;;;12.20;;
44276;SDS011;29973;43.742;1.236;2022-11-15T06:25:59;24.77;;;11.45;;
44276;SDS011;29973;43.742;1.236;2022-11-15T06:28:29;21.73;;;11.57;;
44276;SDS011;29973;43.742;1.236;2022-11-15T06:30:55;19.67;;;10.85;;
44276;SDS011;29973;43.742;1.236;2022-11-15T06:33:22;28.08;;;12.02;;
44276;SDS011;29973;43.742;1.236;2022-11-15T06:35:48;18.60;;;11.27;;
44276;SDS011;29973;43.742;1.236;2022-11-15T06:38:14;17.92;;;10.18;;
44276;SDS011;29973;43.742;1.236;2022-11-15T06:40:40;19.50;;;10.57;;
44276;SDS011;29973;43.742;1.236;2022-11-15T06:43:06;20.60;;;11.23;;
44276;SDS011;29973;43.742;1.236;2022-11-15T06:45:32;26.08;;;11.85;;
44276;SDS011;29973;43.742;1.236;2022-11-15T06:47:59;21.52;;;12.18;;
44276;SDS011;29973;43.742;1.236;2022-11-15T06:50:25;16.02;;;9.80;;
44276;SDS011;29973;43.742;1.236;2022-11-15T06:52:51;21.23;;;9.55;;
44276;SDS011;29973;43.742;1.236;2022-11-15T06:55:17;17.05;;;10.20;;
44276;SDS011;29973;43.742;1.236;2022-11-15T06:57:49;22.55;;;11.43;;
44276;SDS011;29973;43.742;1.236;2022-11-15T07:00:17;24.10;;;11.50;;
44276;SDS011;29973;43.742;1.236;2022-11-15T07:02:43;24.70;;;10.52;;
44276;SDS011;29973;43.742;1.236;2022-11-15T07:05:10;21.83;;;12.38;;
44276;SDS011;29973;43.742;1.236;2022-11-15T07:07:36;29.10;;;11.73;;
44276;SDS011;29973;43.742;1.236;2022-11-15T07:10:02;24.35;;;11.65;;
44276;SDS011;29973;43.742;1.236;2022-11-15T07:12:28;25.77;;;11.48;;
44276;SDS011;29973;43.742;1.236;2022-11-15T07:14:54;24.52;;;11.32;;
44276;SDS011;29973;43.742;1.236;2022-11-15T07:17:20;22.95;;;11.65;;
44276;SDS011;29973;43.742;1.236;2022-11-15T07:19:46;26.65;;;11.65;;
44276;SDS011;29973;43.742;1.236;2022-11-15T07:22:12;23.55;;;12.50;;
44276;SDS011;29973;43.742;1.236;2022-11-15T07:24:38;23.92;;;10.43;;
44276;SDS011;29973;43.742;1.236;2022-11-15T07:27:04;21.30;;;11.40;;
44276;SDS011;29973;43.742;1.236;2022-11-15T07:29:30;27.73;;;11.75;;
44276;SDS011;29973;43.742;1.236;2022-11-15T07:31:56;19.55;;;12.05;;
44276;SDS011;29973;43.742;1.236;2022-11-15T07:34:22;29.23;;;11.80;;
44276;SDS011;29973;43.742;1.236;2022-11-15T07:36:48;20.02;;;11.90;;
44276;SDS011;29973;43.742;1.236;2022-11-15T07:39:15;27.85;;;11.80;;
44276;SDS011;29973;43.742;1.236;2022-11-15T07:41:41;22.33;;;11.95;;
44276;SDS011;29973;43.742;1.236;2022-11-15T07:44:08;28.38;;;12.45;;
44276;SDS011;29973;43.742;1.236;2022-11-15T07:46:34;23.58;;;12.77;;
44276;SDS011;29973;43.742;1.236;2022-11-15T07:49:00;27.67;;;12.38;;
44276;SDS011;29973;43.742;1.236;2022-11-15T07:51:26;27.08;;;12.02;;
44276;SDS011;29973;43.742;1.236;2022-11-15T07:53:52;23.25;;;13.30;;
44276;SDS011;29973;43.742;1.236;2022-11-15T07:56:18;28.17;;;11.93;;
44276;SDS011;29973;43.742;1.236;2022-11-15T07:58:45;24.45;;;11.55;;
44276;SDS011;29973;43.742;1.236;2022-11-15T08:01:12;21.23;;;12.07;;
44276;SDS011;29973;43.742;1.236;2022-11-15T08:03:38;17.85;;;11.35;;
44276;SDS011;29973;43.742;1.236;2022-11-15T08:06:04;24.48;;;12.35;;
44276;SDS011;29973;43.742;1.236;2022-11-15T08:08:30;23.35;;;11.23;;
44276;SDS011;29973;43.742;1.236;2022-11-15T08:11:00;24.27;;;11.75;;
44276;SDS011;29973;43.742;1.236;2022-11-15T08:13:26;18.13;;;11.10;;
44276;SDS011;29973;43.742;1.236;2022-11-15T08:15:56;25.45;;;12.15;;
44276;SDS011;29973;43.742;1.236;2022-11-15T08:18:22;22.80;;;11.10;;
44276;SDS011;29973;43.742;1.236;2022-11-15T08:20:48;21.25;;;10.77;;
44276;SDS011;29973;43.742;1.236;2022-11-15T08:23:14;18.73;;;10.70;;
44276;SDS011;29973;43.742;1.236;2022-11-15T08:25:41;15.68;;;9.65;;
44276;SDS011;29973;43.742;1.236;2022-11-15T08:28:07;13.85;;;9.60;;
44276;SDS011;29973;43.742;1.236;2022-11-15T08:30:34;20.27;;;10.75;;
44276;SDS011;29973;43.742;1.236;2022-11-15T08:33:01;17.33;;;9.43;;
44276;SDS011;29973;43.742;1.236;2022-11-15T08:35:27;16.17;;;9.75;;
44276;SDS011;29973;43.742;1.236;2022-11-15T08:37:54;15.45;;;8.98;;
44276;SDS011;29973;43.742;1.236;2022-11-15T08:40:20;15.35;;;9.25;;
44276;SDS011;29973;43.742;1.236;2022-11-15T08:42:47;17.63;;;9.15;;
44276;SDS011;29973;43.742;1.236;2022-11-15T08:45:13;15.55;;;8.52;;
44276;SDS011;29973;43.742;1.236;2022-11-15T08:47:39;15.30;;;8.63;;
44276;SDS011;29973;43.742;1.236;2022-11-15T08:50:05;15.57;;;8.85;;
44276;SDS011;29973;43.742;1.236;2022-11-15T08:52:33;20.67;;;8.43;;
44276;SDS011;29973;43.742;1.236;2022-11-15T08:54:59;13.15;;;8.48;;
44276;SDS011;29973;43.742;1.236;2022-11-15T08:57:28;16.80;;;7.53;;
44276;SDS011;29973;43.742;1.236;2022-11-15T08:59:55;12.38;;;8.55;;
44276;SDS011;29973;43.742;1.236;2022-11-15T09:02:21;17.38;;;8.07;;
44276;SDS011;29973;43.742;1.236;2022-11-15T09:04:47;17.48;;;8.43;;
44276;SDS011;29973;43.742;1.236;2022-11-15T09:07:13;13.60;;;7.63;;
44276;SDS011;29973;43.742;1.236;2022-11-15T09:09:39;13.90;;;8.27;;
44276;SDS011;29973;43.742;1.236;2022-11-15T09:12:06;17.25;;;8.00;;
44276;SDS011;29973;43.742;1.236;2022-11-15T09:14:32;17.10;;;8.75;;
44276;SDS011;29973;43.742;1.236;2022-11-15T09:16:58;11.73;;;7.53;;
44276;SDS011;29973;43.742;1.236;2022-11-15T09:19:24;12.43;;;8.05;;
44276;SDS011;29973;43.742;1.236;2022-11-15T09:21:50;21.33;;;8.70;;
44276;SDS011;29973;43.742;1.236;2022-11-15T09:24:16;20.73;;;8.45;;
44276;SDS011;29973;43.742;1.236;2022-11-15T09:26:43;15.40;;;8.15;;
44276;SDS011;29973;43.742;1.236;2022-11-15T09:29:09;15.93;;;8.40;;
44276;SDS011;29973;43.742;1.236;2022-11-15T09:31:35;16.65;;;8.35;;
44276;SDS011;29973;43.742;1.236;2022-11-15T09:34:01;13.10;;;7.95;;
44276;SDS011;29973;43.742;1.236;2022-11-15T09:36:27;17.55;;;8.85;;
44276;SDS011;29973;43.742;1.236;2022-11-15T09:38:54;16.25;;;8.02;;
44276;SDS011;29973;43.742;1.236;2022-11-15T09:46:49;17.30;;;9.13;;
44276;SDS011;29973;43.742;1.236;2022-11-15T09:49:17;14.35;;;8.57;;
44276;SDS011;29973;43.742;1.236;2022-11-15T09:51:44;19.25;;;9.20;;
44276;SDS011;29973;43.742;1.236;2022-11-15T09:56:47;15.75;;;8.18;;
44276;SDS011;29973;43.742;1.236;2022-11-15T10:04:26;16.67;;;8.02;;
44276;SDS011;29973;43.742;1.236;2022-11-15T10:07:02;12.02;;;7.30;;
44276;SDS011;29973;43.742;1.236;2022-11-15T10:09:38;13.68;;;7.13;;
44276;SDS011;29973;43.742;1.236;2022-11-15T10:12:07;14.43;;;7.28;;
44276;SDS011;29973;43.742;1.236;2022-11-15T10:14:34;12.57;;;7.22;;
44276;SDS011;29973;43.742;1.236;2022-11-15T10:24:47;18.40;;;6.85;;
44276;SDS011;29973;43.742;1.236;2022-11-15T10:27:14;15.40;;;6.88;;
44276;SDS011;29973;43.742;1.236;2022-11-15T10:29:44;10.35;;;5.68;;
44276;SDS011;29973;43.742;1.236;2022-11-15T10:32:11;14.82;;;6.05;;
44276;SDS011;29973;43.742;1.236;2022-11-15T10:34:37;13.23;;;6.32;;
44276;SDS011;29973;43.742;1.236;2022-11-15T10:37:03;12.43;;;6.10;;
44276;SDS011;29973;43.742;1.236;2022-11-15T10:39:29;10.85;;;5.38;;
44276;SDS011;29973;43.742;1.236;2022-11-15T10:41:55;12.50;;;5.85;;
44276;SDS011;29973;43.742;1.236;2022-11-15T10:49:29;12.15;;;5.47;;
44276;SDS011;29973;43.742;1.236;2022-11-15T10:52:30;10.77;;;5.53;;
44276;SDS011;29973;43.742;1.236;2022-11-15T10:54:51;10.30;;;5.78;;
44276;SDS011;29973;43.742;1.236;2022-11-15T10:57:18;9.20;;;5.53;;
44276;SDS011;29973;43.742;1.236;2022-11-15T10:59:49;12.60;;;6.55;;
44276;SDS011;29973;43.742;1.236;2022-11-15T11:04:57;13.52;;;5.90;;
44276;SDS011;29973;43.742;1.236;2022-11-15T11:07:28;9.98;;;5.43;;
44276;SDS011;29973;43.742;1.236;2022-11-15T11:10:37;11.80;;;5.80;;
44276;SDS011;29973;43.742;1.236;2022-11-15T11:12:43;12.32;;;5.82;;
44276;SDS011;29973;43.742;1.236;2022-11-15T11:15:11;10.48;;;6.13;;
44276;SDS011;29973;43.742;1.236;2022-11-15T11:27:35;8.93;;;5.47;;
44276;SDS011;29973;43.742;1.236;2022-11-15T11:48:48;10.00;;;5.78;;
44276;SDS011;29973;43.742;1.236;2022-11-15T11:51:23;11.85;;;5.45;;
44276;SDS011;29973;43.742;1.236;2022-11-15T11:54:09;12.32;;;6.30;;
44276;SDS011;29973;43.742;1.236;2022-11-15T11:56:37;10.90;;;5.28;;
44276;SDS011;29973;43.742;1.236;2022-11-15T11:59:16;10.30;;;5.28;;
44276;SDS011;29973;43.742;1.236;2022-11-15T12:01:44;9.45;;;5.55;;
44276;SDS011;29973;43.742;1.236;2022-11-15T12:12:00;11.43;;;5.05;;
44276;SDS011;29973;43.742;1.236;2022-11-15T12:14:33;10.77;;;5.85;;
44276;SDS011;29973;43.742;1.236;2022-11-15T12:16:59;8.68;;;5.25;;
44276;SDS011;29973;43.742;1.236;2022-11-15T12:19:26;9.32;;;5.43;;
44276;SDS011;29973;43.742;1.236;2022-11-15T12:24:29;10.32;;;5.32;;
44276;SDS011;29973;43.742;1.236;2022-11-15T12:27:17;12.55;;;5.60;;
44276;SDS011;29973;43.742;1.236;2022-11-15T12:29:43;12.73;;;4.97;;
44276;SDS011;29973;43.742;1.236;2022-11-15T12:32:35;10.25;;;5.50;;
44276;SDS011;29973;43.742;1.236;2022-11-15T12:35:00;11.43;;;5.05;;
44276;SDS011;29973;43.742;1.236;2022-11-15T12:42:38;9.88;;;5.45;;
44276;SDS011;29973;43.742;1.236;2022-11-15T12:45:25;13.75;;;6.13;;
44276;SDS011;29973;43.742;1.236;2022-11-15T12:47:51;11.50;;;5.15;;
44276;SDS011;29973;43.742;1.236;2022-11-15T12:50:22;9.68;;;5.72;;
44276;SDS011;29973;43.742;1.236;2022-11-15T13:06:36;9.93;;;5.85;;
44276;SDS011;29973;43.742;1.236;2022-11-15T13:09:03;14.70;;;6.00;;
44276;SDS011;29973;43.742;1.236;2022-11-15T13:11:42;11.90;;;5.78;;
44276;SDS011;29973;43.742;1.236;2022-11-15T13:16:59;11.15;;;5.25;;
44276;SDS011;29973;43.742;1.236;2022-11-15T13:19:25;9.15;;;5.72;;
44276;SDS011;29973;43.742;1.236;2022-11-15T13:21:52;13.70;;;6.22;;
44276;SDS011;29973;43.742;1.236;2022-11-15T13:24:37;11.93;;;6.25;;
44276;SDS011;29973;43.742;1.236;2022-11-15T13:27:14;14.95;;;5.85;;
44276;SDS011;29973;43.742;1.236;2022-11-15T13:29:42;10.88;;;6.35;;
44276;SDS011;29973;43.742;1.236;2022-11-15T13:32:15;8.05;;;5.63;;
44276;SDS011;29973;43.742;1.236;2022-11-15T13:34:45;8.38;;;5.70;;
44276;SDS011;29973;43.742;1.236;2022-11-15T13:37:27;10.73;;;6.22;;
44276;SDS011;29973;43.742;1.236;2022-11-15T13:39:53;10.68;;;5.55;;
44276;SDS011;29973;43.742;1.236;2022-11-15T13:42:20;11.15;;;5.78;;
44276;SDS011;29973;43.742;1.236;2022-11-15T13:44:56;19.33;;;6.00;;
44276;SDS011;29973;43.742;1.236;2022-11-15T13:47:25;11.45;;;6.65;;
44276;SDS011;29973;43.742;1.236;2022-11-15T13:49:56;14.07;;;5.53;;
44276;SDS011;29973;43.742;1.236;2022-11-15T13:52:22;11.77;;;5.97;;
44276;SDS011;29973;43.742;1.236;2022-11-15T13:54:52;7.80;;;5.43;;
44276;SDS011;29973;43.742;1.236;2022-11-15T13:57:21;9.98;;;6.18;;
44276;SDS011;29973;43.742;1.236;2022-11-15T13:59:52;11.70;;;6.03;;
44276;SDS011;29973;43.742;1.236;2022-11-15T14:02:20;11.57;;;6.77;;
44276;SDS011;29973;43.742;1.236;2022-11-15T14:04:51;11.15;;;5.75;;
44276;SDS011;29973;43.742;1.236;2022-11-15T14:09:44;10.65;;;5.43;;
44276;SDS011;29973;43.742;1.236;2022-11-15T14:15:24;13.73;;;5.88;;
44276;SDS011;29973;43.742;1.236;2022-11-15T14:17:51;8.85;;;5.65;;
44276;SDS011;29973;43.742;1.236;2022-11-15T14:20:26;9.32;;;6.00;;
44276;SDS011;29973;43.742;1.236;2022-11-15T14:22:59;12.60;;;6.03;;
44276;SDS011;29973;43.742;1.236;2022-11-15T14:25:27;10.63;;;5.97;;
44276;SDS011;29973;43.742;1.236;2022-11-15T14:28:10;10.50;;;5.50;;
44276;SDS011;29973;43.742;1.236;2022-11-15T14:30:36;10.57;;;5.70;;
44276;SDS011;29973;43.742;1.236;2022-11-15T14:33:11;9.10;;;5.30;;
44276;SDS011;29973;43.742;1.236;2022-11-15T14:35:42;10.93;;;5.50;;
44276;SDS011;29973;43.742;1.236;2022-11-15T14:38:08;17.40;;;5.97;;
44276;SDS011;29973;43.742;1.236;2022-11-15T14:40:34;11.70;;;6.50;;
44276;SDS011;29973;43.742;1.236;2022-11-15T14:43:00;15.05;;;6.47;;
44276;SDS011;29973;43.742;1.236;2022-11-15T14:45:27;10.98;;;6.68;;
44276;SDS011;29973;43.742;1.236;2022-11-15T14:47:53;18.27;;;7.22;;
44276;SDS011;29973;43.742;1.236;2022-11-15T14:50:20;13.75;;;7.95;;
44276;SDS011;29973;43.742;1.236;2022-11-15T14:52:47;15.30;;;8.70;;
44276;SDS011;29973;43.742;1.236;2022-11-15T14:55:20;13.43;;;7.93;;
44276;SDS011;29973;43.742;1.236;2022-11-15T14:57:48;18.67;;;9.00;;
44276;SDS011;29973;43.742;1.236;2022-11-15T15:00:14;10.82;;;9.10;;
44276;SDS011;29973;43.742;1.236;2022-11-15T15:02:40;13.70;;;10.30;;
44276;SDS011;29973;43.742;1.236;2022-11-15T15:07:39;10.93;;;9.00;;
44276;SDS011;29973;43.742;1.236;2022-11-15T15:10:05;15.73;;;9.68;;
44276;SDS011;29973;43.742;1.236;2022-11-15T15:12:31;14.45;;;9.77;;
44276;SDS011;29973;43.742;1.236;2022-11-15T15:14:58;16.75;;;9.15;;
44276;SDS011;29973;43.742;1.236;2022-11-15T15:17:24;18.15;;;8.60;;
44276;SDS011;29973;43.742;1.236;2022-11-15T15:19:50;13.25;;;9.02;;
44276;SDS011;29973;43.742;1.236;2022-11-15T15:22:17;20.77;;;9.75;;
44276;SDS011;29973;43.742;1.236;2022-11-15T15:24:43;15.60;;;9.55;;
44276;SDS011;29973;43.742;1.236;2022-11-15T15:27:10;14.48;;;10.00;;
44276;SDS011;29973;43.742;1.236;2022-11-15T15:29:36;14.57;;;8.38;;
44276;SDS011;29973;43.742;1.236;2022-11-15T15:32:02;18.02;;;10.27;;
44276;SDS011;29973;43.742;1.236;2022-11-15T15:34:28;14.18;;;10.35;;
44276;SDS011;29973;43.742;1.236;2022-11-15T15:39:54;16.45;;;9.73;;
44276;SDS011;29973;43.742;1.236;2022-11-15T15:42:21;17.27;;;10.55;;
44276;SDS011;29973;43.742;1.236;2022-11-15T15:44:47;20.67;;;10.27;;
44276;SDS011;29973;43.742;1.236;2022-11-15T15:47:17;23.30;;;11.48;;
44276;SDS011;29973;43.742;1.236;2022-11-15T15:49:44;15.55;;;9.43;;
44276;SDS011;29973;43.742;1.236;2022-11-15T15:52:10;17.23;;;9.90;;
44276;SDS011;29973;43.742;1.236;2022-11-15T15:54:36;18.38;;;8.43;;
44276;SDS011;29973;43.742;1.236;2022-11-15T15:57:03;24.90;;;9.85;;
44276;SDS011;29973;43.742;1.236;2022-11-15T15:59:29;20.25;;;9.48;;
44276;SDS011;29973;43.742;1.236;2022-11-15T16:01:56;18.08;;;10.40;;
44276;SDS011;29973;43.742;1.236;2022-11-15T16:04:22;14.82;;;11.23;;
44276;SDS011;29973;43.742;1.236;2022-11-15T16:06:48;15.82;;;12.38;;
44276;SDS011;29973;43.742;1.236;2022-11-15T16:09:17;15.30;;;12.18;;
44276;SDS011;29973;43.742;1.236;2022-11-15T16:11:44;22.30;;;11.73;;
44276;SDS011;29973;43.742;1.236;2022-11-15T16:14:10;16.73;;;11.07;;
44276;SDS011;29973;43.742;1.236;2022-11-15T16:16:37;18.10;;;12.60;;
44276;SDS011;29973;43.742;1.236;2022-11-15T16:19:03;12.80;;;11.30;;
44276;SDS011;29973;43.742;1.236;2022-11-15T16:21:30;17.77;;;13.65;;
44276;SDS011;29973;43.742;1.236;2022-11-15T16:23:56;21.23;;;14.13;;
44276;SDS011;29973;43.742;1.236;2022-11-15T16:26:28;18.75;;;13.80;;
44276;SDS011;29973;43.742;1.236;2022-11-15T16:28:55;19.27;;;14.68;;
44276;SDS011;29973;43.742;1.236;2022-11-15T16:31:21;20.42;;;13.95;;
44276;SDS011;29973;43.742;1.236;2022-11-15T16:33:47;21.98;;;16.10;;
44276;SDS011;29973;43.742;1.236;2022-11-15T16:36:21;19.20;;;15.10;;
44276;SDS011;29973;43.742;1.236;2022-11-15T16:38:47;15.65;;;12.77;;
44276;SDS011;29973;43.742;1.236;2022-11-15T16:41:13;20.17;;;13.73;;
44276;SDS011;29973;43.742;1.236;2022-11-15T16:43:42;21.38;;;12.85;;
44276;SDS011;29973;43.742;1.236;2022-11-15T16:46:13;16.55;;;12.00;;
44276;SDS011;29973;43.742;1.236;2022-11-15T16:48:40;23.15;;;12.73;;